Seneca, OR (97873)

10:13 PM PST on November 28, 2014 (GMT -0800)
City Hall | Change Station
CLOSE
Current Station
Personal Weather Station
Location: Seneca, OR
Elevation: 4669 ft
Nearby Weather Stations
Active Advisory: Special Statement Active Notice: Record Report

Elev 4669 ft 44.13 °N, 118.97 °W | Updated 13 seconds ago

Mostly Cloudy
Mostly Cloudy
41.8 °F
Feels Like 38 °F
N
6.5
Wind Variable Wind from SSW
Gusts 10.4 mph

Today
High -- | Low -- °F
--% Chance of Precip.
Yesterday
High -- | Low -- °F
Precip. -- in
7:07 AM 4:19 PM
Waxing Crescent, 48% visible
Pressure 29.54 in
Visibility 10.0 miles
Clouds Overcast 4100 ft
Windchill 38 °F
Dew Point Not available.
Humidity Not available.
Rainfall 0.00 in
Snow Depth Not available.
UV 0 out of 12
Pollen .10 out of 12
Air Quality Not available.
Flu Activity Not available.
METAR KGCD 290555Z AUTO 18005KT 10SM OVC041 09/02 A2954 RMK AO2 T00900020 10112 20090

More Conditions Fewer Conditions

Pressure 29.54 in
Visibility 10.0 miles
Clouds Overcast 4100 ft
Windchill 38 °F
Dew Point Not available.
Humidity Not available.
Rainfall 0.00 in
Snow Depth Not available.
UV 0 out of 12
Pollen .10 out of 12
Air Quality Not available.
Flu Activity Not available.
METAR KGCD 290555Z AUTO 18005KT 10SM OVC041 09/02 A2954 RMK AO2 T00900020 10112 20090

More Conditions Fewer Conditions

10-Day Weather Forecast

Almanac

Astronomy

Nov. 28, 2014 Rise Set
Actual Time
Civil Twilight
Nautical Twilight
Astronomical Twilight
Moon
Length of Visible Light
Length of Day
Tomorrow will be .
, % of the Moon is Illuminated

Today's Extremes

State Highs State Lows

Community

WunderPhotos

Upload Photos

1,774,426 photos uploaded!

WunderBlogs® & News

Nearby

Air Quality

  Air Quality AQ Index Pollutant
Not available.

Snow Depth

Station Depth Elevation

Earthquake Activity

City Distance Mag. Time & Date
Minimum magnitude displayed is 2.5.

Coastal Water Temperatures

Place Temperature

Nearby Weather Stations